sensor_id;sensor_type;location;lat;lon;timestamp;temperature;humidity
5930;DHT22;2990;48.746;9.236;2024-03-02T00:02:07;5.20;99.90
5930;DHT22;2990;48.746;9.236;2024-03-02T00:04:33;5.10;99.90
5930;DHT22;2990;48.746;9.236;2024-03-02T00:06:59;5.10;99.90
5930;DHT22;2990;48.746;9.236;2024-03-02T00:09:25;5.10;99.90
5930;DHT22;2990;48.746;9.236;2024-03-02T00:11:50;5.10;99.90
5930;DHT22;2990;48.746;9.236;2024-03-02T00:14:16;5.00;99.90
5930;DHT22;2990;48.746;9.236;2024-03-02T00:16:42;5.00;99.90
5930;DHT22;2990;48.746;9.236;2024-03-02T00:19:09;5.00;99.90
5930;DHT22;2990;48.746;9.236;2024-03-02T00:21:34;5.00;99.90
5930;DHT22;2990;48.746;9.236;2024-03-02T00:24:01;5.00;99.90
5930;DHT22;2990;48.746;9.236;2024-03-02T00:26:30;5.00;99.90
5930;DHT22;2990;48.746;9.236;2024-03-02T00:28:56;5.10;99.90
5930;DHT22;2990;48.746;9.236;2024-03-02T00:31:22;5.10;99.90
5930;DHT22;2990;48.746;9.236;2024-03-02T00:33:48;5.20;99.90
5930;DHT22;2990;48.746;9.236;2024-03-02T00:36:15;5.10;99.90
5930;DHT22;2990;48.746;9.236;2024-03-02T00:38:49;5.20;99.90
5930;DHT22;2990;48.746;9.236;2024-03-02T00:44:02;5.20;99.90
5930;DHT22;2990;48.746;9.236;2024-03-02T00:46:39;5.20;99.90
5930;DHT22;2990;48.746;9.236;2024-03-02T00:51:36;5.20;99.90
5930;DHT22;2990;48.746;9.236;2024-03-02T00:54:04;5.20;99.90
5930;DHT22;2990;48.746;9.236;2024-03-02T00:56:30;5.20;99.90
5930;DHT22;2990;48.746;9.236;2024-03-02T00:58:57;5.20;99.90
5930;DHT22;2990;48.746;9.236;2024-03-02T01:01:23;5.20;99.90
5930;DHT22;2990;48.746;9.236;2024-03-02T01:03:49;5.20;99.90
5930;DHT22;2990;48.746;9.236;2024-03-02T01:06:15;5.20;99.90
5930;DHT22;2990;48.746;9.236;2024-03-02T01:08:41;5.20;99.90
5930;DHT22;2990;48.746;9.236;2024-03-02T01:11:07;5.20;99.10
5930;DHT22;2990;48.746;9.236;2024-03-02T01:13:33;5.20;99.90
5930;DHT22;2990;48.746;9.236;2024-03-02T01:15:59;5.20;97.30
5930;DHT22;2990;48.746;9.236;2024-03-02T01:18:24;5.20;93.50
5930;DHT22;2990;48.746;9.236;2024-03-02T01:20:50;5.20;94.20
5930;DHT22;2990;48.746;9.236;2024-03-02T01:23:21;5.20;90.70
5930;DHT22;2990;48.746;9.236;2024-03-02T01:25:47;5.20;85.90
5930;DHT22;2990;48.746;9.236;2024-03-02T01:28:13;5.20;79.90
5930;DHT22;2990;48.746;9.236;2024-03-02T01:30:39;5.20;88.50
5930;DHT22;2990;48.746;9.236;2024-03-02T01:33:05;5.20;95.10
5930;DHT22;2990;48.746;9.236;2024-03-02T01:35:31;5.20;90.40
5930;DHT22;2990;48.746;9.236;2024-03-02T01:37:57;5.20;71.70
5930;DHT22;2990;48.746;9.236;2024-03-02T01:40:22;5.20;81.80
5930;DHT22;2990;48.746;9.236;2024-03-02T01:42:52;5.20;57.20
5930;DHT22;2990;48.746;9.236;2024-03-02T01:45:17;5.20;54.90
5930;DHT22;2990;48.746;9.236;2024-03-02T01:47:43;5.10;44.50
5930;DHT22;2990;48.746;9.236;2024-03-02T01:50:13;5.00;54.20
5930;DHT22;2990;48.746;9.236;2024-03-02T01:52:39;5.00;74.90
5930;DHT22;2990;48.746;9.236;2024-03-02T01:55:05;4.90;79.60
5930;DHT22;2990;48.746;9.236;2024-03-02T01:57:31;4.80;94.70
5930;DHT22;2990;48.746;9.236;2024-03-02T01:59:57;4.80;99.90
5930;DHT22;2990;48.746;9.236;2024-03-02T02:02:23;4.70;99.90
5930;DHT22;2990;48.746;9.236;2024-03-02T02:04:48;4.60;99.90
5930;DHT22;2990;48.746;9.236;2024-03-02T02:07:14;4.50;99.90
5930;DHT22;2990;48.746;9.236;2024-03-02T02:09:43;4.50;99.90
5930;DHT22;2990;48.746;9.236;2024-03-02T02:12:09;4.40;99.90
5930;DHT22;2990;48.746;9.236;2024-03-02T02:14:35;4.30;99.90
5930;DHT22;2990;48.746;9.236;2024-03-02T02:17:01;4.30;99.90
5930;DHT22;2990;48.746;9.236;2024-03-02T02:19:27;4.20;99.90
5930;DHT22;2990;48.746;9.236;2024-03-02T02:21:52;4.20;99.90
5930;DHT22;2990;48.746;9.236;2024-03-02T02:24:18;4.10;99.90
5930;DHT22;2990;48.746;9.236;2024-03-02T02:26:43;4.10;99.90
5930;DHT22;2990;48.746;9.236;2024-03-02T02:29:09;4.10;99.90
5930;DHT22;2990;48.746;9.236;2024-03-02T02:31:38;4.10;99.90
5930;DHT22;2990;48.746;9.236;2024-03-02T02:34:04;4.20;99.90
5930;DHT22;2990;48.746;9.236;2024-03-02T02:36:31;4.30;99.90
5930;DHT22;2990;48.746;9.236;2024-03-02T02:38:56;4.20;99.90
5930;DHT22;2990;48.746;9.236;2024-03-02T02:41:22;4.30;99.90
5930;DHT22;2990;48.746;9.236;2024-03-02T02:43:48;4.30;99.90
5930;DHT22;2990;48.746;9.236;2024-03-02T02:46:13;4.40;99.90
5930;DHT22;2990;48.746;9.236;2024-03-02T02:48:39;4.30;99.90
5930;DHT22;2990;48.746;9.236;2024-03-02T02:51:04;4.30;99.90
5930;DHT22;2990;48.746;9.236;2024-03-02T02:53:30;4.40;99.90
5930;DHT22;2990;48.746;9.236;2024-03-02T02:55:55;4.40;99.90
5930;DHT22;2990;48.746;9.236;2024-03-02T02:58:21;4.40;99.90
5930;DHT22;2990;48.746;9.236;2024-03-02T03:00:46;4.30;99.90
5930;DHT22;2990;48.746;9.236;2024-03-02T03:03:12;4.30;99.90
5930;DHT22;2990;48.746;9.236;2024-03-02T03:05:37;4.30;99.90
5930;DHT22;2990;48.746;9.236;2024-03-02T03:08:03;4.30;99.90
5930;DHT22;2990;48.746;9.236;2024-03-02T03:10:29;4.40;99.90
5930;DHT22;2990;48.746;9.236;2024-03-02T03:12:54;4.40;99.90
5930;DHT22;2990;48.746;9.236;2024-03-02T03:15:21;4.40;99.90
5930;DHT22;2990;48.746;9.236;2024-03-02T03:17:47;4.50;99.90
5930;DHT22;2990;48.746;9.236;2024-03-02T03:20:12;4.50;99.90
5930;DHT22;2990;48.746;9.236;2024-03-02T03:22:39;4.50;99.90
5930;DHT22;2990;48.746;9.236;2024-03-02T03:25:05;4.60;99.90
5930;DHT22;2990;48.746;9.236;2024-03-02T03:27:30;4.60;99.90
5930;DHT22;2990;48.746;9.236;2024-03-02T03:29:56;4.70;99.90
5930;DHT22;2990;48.746;9.236;2024-03-02T03:32:22;4.70;99.90
5930;DHT22;2990;48.746;9.236;2024-03-02T03:34:47;4.70;99.90
5930;DHT22;2990;48.746;9.236;2024-03-02T03:37:14;4.70;99.90
5930;DHT22;2990;48.746;9.236;2024-03-02T03:39:39;4.70;99.90
5930;DHT22;2990;48.746;9.236;2024-03-02T03:42:05;4.70;99.90
5930;DHT22;2990;48.746;9.236;2024-03-02T03:44:30;4.60;99.90
5930;DHT22;2990;48.746;9.236;2024-03-02T03:46:56;4.70;99.90
5930;DHT22;2990;48.746;9.236;2024-03-02T03:49:22;4.70;99.90
5930;DHT22;2990;48.746;9.236;2024-03-02T03:51:47;4.70;99.90
5930;DHT22;2990;48.746;9.236;2024-03-02T03:54:13;4.70;99.90
5930;DHT22;2990;48.746;9.236;2024-03-02T03:56:38;4.70;99.90
5930;DHT22;2990;48.746;9.236;2024-03-02T03:59:04;4.70;99.90
5930;DHT22;2990;48.746;9.236;2024-03-02T04:01:30;4.70;99.90
5930;DHT22;2990;48.746;9.236;2024-03-02T04:03:57;4.70;99.90
5930;DHT22;2990;48.746;9.236;2024-03-02T04:06:23;4.70;99.90
5930;DHT22;2990;48.746;9.236;2024-03-02T04:08:49;4.70;99.90
5930;DHT22;2990;48.746;9.236;2024-03-02T04:11:15;4.70;99.90
5930;DHT22;2990;48.746;9.236;2024-03-02T04:13:40;4.70;99.90
5930;DHT22;2990;48.746;9.236;2024-03-02T04:16:06;4.60;99.90
5930;DHT22;2990;48.746;9.236;2024-03-02T04:18:31;4.60;99.90
5930;DHT22;2990;48.746;9.236;2024-03-02T04:21:00;4.60;99.90
5930;DHT22;2990;48.746;9.236;2024-03-02T04:23:26;4.50;99.90
5930;DHT22;2990;48.746;9.236;2024-03-02T04:25:52;4.50;99.90
5930;DHT22;2990;48.746;9.236;2024-03-02T04:28:17;4.50;99.90
5930;DHT22;2990;48.746;9.236;2024-03-02T04:30:42;4.50;99.90
5930;DHT22;2990;48.746;9.236;2024-03-02T04:33:08;4.50;99.90
5930;DHT22;2990;48.746;9.236;2024-03-02T04:35:36;4.50;99.90
5930;DHT22;2990;48.746;9.236;2024-03-02T04:38:01;4.40;99.90
5930;DHT22;2990;48.746;9.236;2024-03-02T04:40:27;4.40;99.90
5930;DHT22;2990;48.746;9.236;2024-03-02T04:42:52;4.30;99.90
5930;DHT22;2990;48.746;9.236;2024-03-02T04:45:18;4.30;99.90
5930;DHT22;2990;48.746;9.236;2024-03-02T04:47:44;4.30;99.90
5930;DHT22;2990;48.746;9.236;2024-03-02T04:50:09;4.20;99.90
5930;DHT22;2990;48.746;9.236;2024-03-02T04:52:35;4.20;99.90
5930;DHT22;2990;48.746;9.236;2024-03-02T04:55:01;4.20;99.90
5930;DHT22;2990;48.746;9.236;2024-03-02T04:57:50;4.10;99.90
5930;DHT22;2990;48.746;9.236;2024-03-02T05:00:16;4.10;99.90
5930;DHT22;2990;48.746;9.236;2024-03-02T05:02:42;4.00;99.90
5930;DHT22;2990;48.746;9.236;2024-03-02T05:05:08;3.90;99.90
5930;DHT22;2990;48.746;9.236;2024-03-02T05:07:33;3.80;99.90
5930;DHT22;2990;48.746;9.236;2024-03-02T05:09:59;3.80;99.90
5930;DHT22;2990;48.746;9.236;2024-03-02T05:12:25;3.70;99.90
5930;DHT22;2990;48.746;9.236;2024-03-02T05:15:09;3.70;99.90
5930;DHT22;2990;48.746;9.236;2024-03-02T05:17:36;3.60;99.90
5930;DHT22;2990;48.746;9.236;2024-03-02T05:20:02;3.60;99.90
5930;DHT22;2990;48.746;9.236;2024-03-02T05:22:28;3.60;99.90
5930;DHT22;2990;48.746;9.236;2024-03-02T05:24:54;3.60;99.90
5930;DHT22;2990;48.746;9.236;2024-03-02T05:27:19;3.60;99.90
5930;DHT22;2990;48.746;9.236;2024-03-02T05:29:45;3.50;99.90
5930;DHT22;2990;48.746;9.236;2024-03-02T05:32:10;3.50;99.90
5930;DHT22;2990;48.746;9.236;2024-03-02T05:34:36;3.50;99.90
5930;DHT22;2990;48.746;9.236;2024-03-02T05:37:01;3.50;99.90
5930;DHT22;2990;48.746;9.236;2024-03-02T05:39:27;3.40;99.90
5930;DHT22;2990;48.746;9.236;2024-03-02T05:41:52;3.40;99.90
5930;DHT22;2990;48.746;9.236;2024-03-02T05:44:18;3.40;99.90
5930;DHT22;2990;48.746;9.236;2024-03-02T05:46:45;3.40;99.90
5930;DHT22;2990;48.746;9.236;2024-03-02T05:49:11;3.30;99.90
5930;DHT22;2990;48.746;9.236;2024-03-02T05:51:37;3.30;99.90
5930;DHT22;2990;48.746;9.236;2024-03-02T05:54:03;3.30;99.90
5930;DHT22;2990;48.746;9.236;2024-03-02T05:56:28;3.20;99.90
5930;DHT22;2990;48.746;9.236;2024-03-02T05:58:54;3.20;99.90
5930;DHT22;2990;48.746;9.236;2024-03-02T06:01:42;3.20;99.90
5930;DHT22;2990;48.746;9.236;2024-03-02T06:04:08;3.20;99.90
5930;DHT22;2990;48.746;9.236;2024-03-02T06:06:34;3.20;99.90
5930;DHT22;2990;48.746;9.236;2024-03-02T06:09:01;3.20;99.90
5930;DHT22;2990;48.746;9.236;2024-03-02T06:11:26;3.20;99.90
5930;DHT22;2990;48.746;9.236;2024-03-02T06:13:52;3.20;99.90
5930;DHT22;2990;48.746;9.236;2024-03-02T06:16:17;3.20;99.90
5930;DHT22;2990;48.746;9.236;2024-03-02T06:18:43;3.20;99.90
5930;DHT22;2990;48.746;9.236;2024-03-02T06:21:08;3.10;99.90
5930;DHT22;2990;48.746;9.236;2024-03-02T06:23:34;3.10;99.90
5930;DHT22;2990;48.746;9.236;2024-03-02T06:26:00;3.10;99.90
5930;DHT22;2990;48.746;9.236;2024-03-02T06:28:26;3.20;99.90
5930;DHT22;2990;48.746;9.236;2024-03-02T06:30:51;3.30;99.90
5930;DHT22;2990;48.746;9.236;2024-03-02T06:33:17;3.30;99.90
5930;DHT22;2990;48.746;9.236;2024-03-02T06:35:42;3.30;99.90
5930;DHT22;2990;48.746;9.236;2024-03-02T06:38:08;3.40;99.90
5930;DHT22;2990;48.746;9.236;2024-03-02T06:40:34;3.50;99.90
5930;DHT22;2990;48.746;9.236;2024-03-02T06:42:59;3.60;99.90
5930;DHT22;2990;48.746;9.236;2024-03-02T06:45:25;3.70;99.90
5930;DHT22;2990;48.746;9.236;2024-03-02T06:47:50;3.80;99.90
5930;DHT22;2990;48.746;9.236;2024-03-02T06:50:16;3.80;99.90
5930;DHT22;2990;48.746;9.236;2024-03-02T06:52:41;4.00;99.90
5930;DHT22;2990;48.746;9.236;2024-03-02T06:55:07;4.10;99.90
5930;DHT22;2990;48.746;9.236;2024-03-02T06:57:33;4.20;99.90
5930;DHT22;2990;48.746;9.236;2024-03-02T06:59:58;4.30;99.90
5930;DHT22;2990;48.746;9.236;2024-03-02T07:02:27;4.40;99.90
5930;DHT22;2990;48.746;9.236;2024-03-02T07:04:53;4.50;99.90
5930;DHT22;2990;48.746;9.236;2024-03-02T07:07:19;4.60;99.90
5930;DHT22;2990;48.746;9.236;2024-03-02T07:09:45;4.70;99.90
5930;DHT22;2990;48.746;9.236;2024-03-02T07:12:10;4.70;99.90
5930;DHT22;2990;48.746;9.236;2024-03-02T07:14:36;4.80;99.90
5930;DHT22;2990;48.746;9.236;2024-03-02T07:17:28;4.80;99.90
5930;DHT22;2990;48.746;9.236;2024-03-02T07:19:53;4.90;88.20
5930;DHT22;2990;48.746;9.236;2024-03-02T07:22:19;4.90;58.20
5930;DHT22;2990;48.746;9.236;2024-03-02T07:24:45;5.00;24.80
5930;DHT22;2990;48.746;9.236;2024-03-02T07:27:12;5.10;1.00
5930;DHT22;2990;48.746;9.236;2024-03-02T07:29:38;5.20;1.00
5930;DHT22;2990;48.746;9.236;2024-03-02T07:32:05;5.30;1.00
5930;DHT22;2990;48.746;9.236;2024-03-02T07:34:30;5.40;1.00
5930;DHT22;2990;48.746;9.236;2024-03-02T07:36:56;5.40;1.00
5930;DHT22;2990;48.746;9.236;2024-03-02T07:39:22;5.60;1.00
5930;DHT22;2990;48.746;9.236;2024-03-02T07:41:48;5.60;1.00
5930;DHT22;2990;48.746;9.236;2024-03-02T07:44:13;5.70;1.00
5930;DHT22;2990;48.746;9.236;2024-03-02T07:46:42;5.80;1.00
5930;DHT22;2990;48.746;9.236;2024-03-02T07:49:09;5.70;1.00
5930;DHT22;2990;48.746;9.236;2024-03-02T07:51:34;5.80;1.00
5930;DHT22;2990;48.746;9.236;2024-03-02T07:54:00;5.70;1.00
5930;DHT22;2990;48.746;9.236;2024-03-02T07:56:26;5.70;1.00
5930;DHT22;2990;48.746;9.236;2024-03-02T07:58:52;5.70;1.00
5930;DHT22;2990;48.746;9.236;2024-03-02T08:01:17;5.70;1.00
5930;DHT22;2990;48.746;9.236;2024-03-02T08:03:44;5.70;1.00
5930;DHT22;2990;48.746;9.236;2024-03-02T08:06:14;5.70;1.00
5930;DHT22;2990;48.746;9.236;2024-03-02T08:08:40;5.70;1.00
5930;DHT22;2990;48.746;9.236;2024-03-02T08:11:06;5.70;1.00
5930;DHT22;2990;48.746;9.236;2024-03-02T08:13:31;5.70;1.00
5930;DHT22;2990;48.746;9.236;2024-03-02T08:15:57;5.70;1.00
5930;DHT22;2990;48.746;9.236;2024-03-02T08:18:23;5.70;1.00
5930;DHT22;2990;48.746;9.236;2024-03-02T08:20:49;5.70;1.00
5930;DHT22;2990;48.746;9.236;2024-03-02T08:23:15;5.90;1.00
5930;DHT22;2990;48.746;9.236;2024-03-02T08:25:40;5.90;1.00
5930;DHT22;2990;48.746;9.236;2024-03-02T08:28:06;6.00;1.00
5930;DHT22;2990;48.746;9.236;2024-03-02T08:30:32;6.00;1.00
5930;DHT22;2990;48.746;9.236;2024-03-02T08:32:57;6.00;1.00
5930;DHT22;2990;48.746;9.236;2024-03-02T08:35:23;6.20;1.00
5930;DHT22;2990;48.746;9.236;2024-03-02T08:37:48;6.30;1.00
5930;DHT22;2990;48.746;9.236;2024-03-02T08:40:14;6.40;1.00
5930;DHT22;2990;48.746;9.236;2024-03-02T08:42:40;6.40;99.90
5930;DHT22;2990;48.746;9.236;2024-03-02T08:45:06;6.60;99.90
5930;DHT22;2990;48.746;9.236;2024-03-02T08:47:32;6.90;99.90
5930;DHT22;2990;48.746;9.236;2024-03-02T08:49:59;7.20;1.00
5930;DHT22;2990;48.746;9.236;2024-03-02T08:52:25;7.30;1.00
5930;DHT22;2990;48.746;9.236;2024-03-02T08:54:51;7.60;1.00
5930;DHT22;2990;48.746;9.236;2024-03-02T08:57:16;8.00;99.90
5930;DHT22;2990;48.746;9.236;2024-03-02T08:59:42;8.20;1.00
5930;DHT22;2990;48.746;9.236;2024-03-02T09:02:07;8.50;1.00
5930;DHT22;2990;48.746;9.236;2024-03-02T09:04:33;8.70;1.00
5930;DHT22;2990;48.746;9.236;2024-03-02T09:06:58;9.00;1.00
5930;DHT22;2990;48.746;9.236;2024-03-02T09:09:24;9.20;99.90
5930;DHT22;2990;48.746;9.236;2024-03-02T09:11:50;9.60;1.00
5930;DHT22;2990;48.746;9.236;2024-03-02T09:14:16;9.90;1.00
5930;DHT22;2990;48.746;9.236;2024-03-02T09:16:42;10.00;4.40
5930;DHT22;2990;48.746;9.236;2024-03-02T09:19:07;10.10;1.00
5930;DHT22;2990;48.746;9.236;2024-03-02T09:21:33;10.30;1.00
5930;DHT22;2990;48.746;9.236;2024-03-02T09:23:59;10.50;99.90
5930;DHT22;2990;48.746;9.236;2024-03-02T09:26:25;10.60;1.00
5930;DHT22;2990;48.746;9.236;2024-03-02T09:28:51;10.60;1.00
5930;DHT22;2990;48.746;9.236;2024-03-02T09:31:16;10.70;1.00
5930;DHT22;2990;48.746;9.236;2024-03-02T09:33:42;10.90;99.90
5930;DHT22;2990;48.746;9.236;2024-03-02T09:36:21;11.00;99.90
5930;DHT22;2990;48.746;9.236;2024-03-02T09:38:47;11.20;99.90
5930;DHT22;2990;48.746;9.236;2024-03-02T09:41:16;11.30;99.90
5930;DHT22;2990;48.746;9.236;2024-03-02T09:43:42;11.40;99.90
5930;DHT22;2990;48.746;9.236;2024-03-02T09:46:11;11.60;1.00
5930;DHT22;2990;48.746;9.236;2024-03-02T09:48:37;11.80;1.00
5930;DHT22;2990;48.746;9.236;2024-03-02T09:51:04;11.90;1.00
5930;DHT22;2990;48.746;9.236;2024-03-02T09:53:32;12.00;1.00
5930;DHT22;2990;48.746;9.236;2024-03-02T09:55:59;12.00;1.00
5930;DHT22;2990;48.746;9.236;2024-03-02T09:58:24;12.20;1.00
5930;DHT22;2990;48.746;9.236;2024-03-02T10:00:50;12.50;1.00
5930;DHT22;2990;48.746;9.236;2024-03-02T10:03:18;12.60;1.00
5930;DHT22;2990;48.746;9.236;2024-03-02T10:05:44;12.80;1.00
5930;DHT22;2990;48.746;9.236;2024-03-02T10:08:09;13.10;1.00
5930;DHT22;2990;48.746;9.236;2024-03-02T10:10:44;13.20;1.00
5930;DHT22;2990;48.746;9.236;2024-03-02T10:13:13;13.50;1.00
5930;DHT22;2990;48.746;9.236;2024-03-02T10:15:40;13.70;1.00
5930;DHT22;2990;48.746;9.236;2024-03-02T10:18:11;14.00;1.00
5930;DHT22;2990;48.746;9.236;2024-03-02T10:20:38;14.10;1.00
5930;DHT22;2990;48.746;9.236;2024-03-02T10:23:12;14.10;1.00
5930;DHT22;2990;48.746;9.236;2024-03-02T10:25:38;14.00;1.00
5930;DHT22;2990;48.746;9.236;2024-03-02T10:28:04;14.10;1.00
5930;DHT22;2990;48.746;9.236;2024-03-02T10:30:33;14.00;1.00
5930;DHT22;2990;48.746;9.236;2024-03-02T10:33:03;13.80;1.00
5930;DHT22;2990;48.746;9.236;2024-03-02T10:35:29;13.90;1.00
5930;DHT22;2990;48.746;9.236;2024-03-02T10:37:58;14.00;1.00
5930;DHT22;2990;48.746;9.236;2024-03-02T10:40:24;14.10;1.00
5930;DHT22;2990;48.746;9.236;2024-03-02T10:42:50;14.30;1.00
5930;DHT22;2990;48.746;9.236;2024-03-02T10:45:20;14.40;1.00
5930;DHT22;2990;48.746;9.236;2024-03-02T10:47:48;14.50;1.00
5930;DHT22;2990;48.746;9.236;2024-03-02T10:50:14;14.50;1.00
5930;DHT22;2990;48.746;9.236;2024-03-02T10:52:40;14.60;1.00
5930;DHT22;2990;48.746;9.236;2024-03-02T10:55:11;14.60;1.00
5930;DHT22;2990;48.746;9.236;2024-03-02T10:58:01;14.70;99.90
5930;DHT22;2990;48.746;9.236;2024-03-02T11:00:33;14.80;99.90
5930;DHT22;2990;48.746;9.236;2024-03-02T11:03:05;14.80;99.90
5930;DHT22;2990;48.746;9.236;2024-03-02T11:05:45;14.70;99.90
5930;DHT22;2990;48.746;9.236;2024-03-02T11:08:13;14.70;99.90
5930;DHT22;2990;48.746;9.236;2024-03-02T11:10:53;14.90;99.90
5930;DHT22;2990;48.746;9.236;2024-03-02T11:13:29;14.90;99.90
5930;DHT22;2990;48.746;9.236;2024-03-02T11:15:59;15.00;99.90
5930;DHT22;2990;48.746;9.236;2024-03-02T11:18:29;15.10;99.90
5930;DHT22;2990;48.746;9.236;2024-03-02T11:20:55;15.10;99.90
5930;DHT22;2990;48.746;9.236;2024-03-02T11:23:34;15.20;99.90
5930;DHT22;2990;48.746;9.236;2024-03-02T11:26:21;15.40;99.90
5930;DHT22;2990;48.746;9.236;2024-03-02T11:28:48;15.50;99.90
5930;DHT22;2990;48.746;9.236;2024-03-02T11:31:14;15.70;99.90
5930;DHT22;2990;48.746;9.236;2024-03-02T11:33:39;15.80;99.90
5930;DHT22;2990;48.746;9.236;2024-03-02T11:36:09;15.90;99.90
5930;DHT22;2990;48.746;9.236;2024-03-02T11:38:35;15.90;99.90
5930;DHT22;2990;48.746;9.236;2024-03-02T11:41:07;15.90;99.90
5930;DHT22;2990;48.746;9.236;2024-03-02T11:43:37;15.90;99.90
5930;DHT22;2990;48.746;9.236;2024-03-02T11:46:05;15.70;99.90
5930;DHT22;2990;48.746;9.236;2024-03-02T11:48:35;15.90;99.90
5930;DHT22;2990;48.746;9.236;2024-03-02T11:51:02;16.10;99.90
5930;DHT22;2990;48.746;9.236;2024-03-02T11:53:28;16.30;99.90
5930;DHT22;2990;48.746;9.236;2024-03-02T11:55:58;16.50;99.90
5930;DHT22;2990;48.746;9.236;2024-03-02T11:58:23;16.50;99.90
5930;DHT22;2990;48.746;9.236;2024-03-02T12:00:53;16.50;99.90
5930;DHT22;2990;48.746;9.236;2024-03-02T12:03:21;16.10;99.90
5930;DHT22;2990;48.746;9.236;2024-03-02T12:05:52;16.00;99.90
5930;DHT22;2990;48.746;9.236;2024-03-02T12:08:18;15.60;99.90
5930;DHT22;2990;48.746;9.236;2024-03-02T12:10:59;15.60;99.90
5930;DHT22;2990;48.746;9.236;2024-03-02T12:13:25;15.60;99.90
5930;DHT22;2990;48.746;9.236;2024-03-02T12:15:53;15.70;99.90
5930;DHT22;2990;48.746;9.236;2024-03-02T12:18:22;15.80;99.90
5930;DHT22;2990;48.746;9.236;2024-03-02T12:20:49;15.80;99.90
5930;DHT22;2990;48.746;9.236;2024-03-02T12:23:21;15.90;99.90
5930;DHT22;2990;48.746;9.236;2024-03-02T12:25:47;16.00;99.90
5930;DHT22;2990;48.746;9.236;2024-03-02T12:28:13;16.10;99.90
5930;DHT22;2990;48.746;9.236;2024-03-02T12:30:39;16.10;99.90
5930;DHT22;2990;48.746;9.236;2024-03-02T12:33:05;16.20;99.90
5930;DHT22;2990;48.746;9.236;2024-03-02T12:35:30;16.30;99.90
5930;DHT22;2990;48.746;9.236;2024-03-02T12:37:57;16.60;99.90
5930;DHT22;2990;48.746;9.236;2024-03-02T12:40:22;16.60;99.90
5930;DHT22;2990;48.746;9.236;2024-03-02T12:42:48;16.50;99.90
5930;DHT22;2990;48.746;9.236;2024-03-02T12:45:15;16.60;99.90
5930;DHT22;2990;48.746;9.236;2024-03-02T12:47:42;16.60;99.90
5930;DHT22;2990;48.746;9.236;2024-03-02T12:50:09;16.70;99.90
5930;DHT22;2990;48.746;9.236;2024-03-02T12:52:35;16.70;99.90
5930;DHT22;2990;48.746;9.236;2024-03-02T12:55:03;16.60;99.90
5930;DHT22;2990;48.746;9.236;2024-03-02T12:57:30;16.50;99.90
5930;DHT22;2990;48.746;9.236;2024-03-02T13:00:06;16.40;98.50
5930;DHT22;2990;48.746;9.236;2024-03-02T13:02:36;16.60;95.10
5930;DHT22;2990;48.746;9.236;2024-03-02T13:05:02;16.70;99.90
5930;DHT22;2990;48.746;9.236;2024-03-02T13:07:29;16.80;97.30
5930;DHT22;2990;48.746;9.236;2024-03-02T13:09:55;16.70;75.00
5930;DHT22;2990;48.746;9.236;2024-03-02T13:12:24;16.60;99.90
5930;DHT22;2990;48.746;9.236;2024-03-02T13:14:53;16.70;99.90
5930;DHT22;2990;48.746;9.236;2024-03-02T13:17:19;16.70;61.40
5930;DHT22;2990;48.746;9.236;2024-03-02T13:19:55;16.80;99.90
5930;DHT22;2990;48.746;9.236;2024-03-02T13:22:21;16.80;97.90
5930;DHT22;2990;48.746;9.236;2024-03-02T13:24:49;16.90;99.90
5930;DHT22;2990;48.746;9.236;2024-03-02T13:27:14;16.80;95.00
5930;DHT22;2990;48.746;9.236;2024-03-02T13:29:41;16.70;62.20
5930;DHT22;2990;48.746;9.236;2024-03-02T13:32:07;16.80;83.90
5930;DHT22;2990;48.746;9.236;2024-03-02T13:34:33;16.80;28.60
5930;DHT22;2990;48.746;9.236;2024-03-02T13:36:58;16.90;72.40
5930;DHT22;2990;48.746;9.236;2024-03-02T13:39:26;16.90;99.90
5930;DHT22;2990;48.746;9.236;2024-03-02T13:41:52;16.90;99.90
5930;DHT22;2990;48.746;9.236;2024-03-02T13:44:21;17.00;99.90
5930;DHT22;2990;48.746;9.236;2024-03-02T13:46:47;17.00;99.90
5930;DHT22;2990;48.746;9.236;2024-03-02T13:49:13;16.90;90.70
5930;DHT22;2990;48.746;9.236;2024-03-02T13:51:39;16.70;90.90
5930;DHT22;2990;48.746;9.236;2024-03-02T13:54:05;16.60;92.40
5930;DHT22;2990;48.746;9.236;2024-03-02T13:56:31;16.80;96.20
5930;DHT22;2990;48.746;9.236;2024-03-02T13:58:58;16.90;75.90
5930;DHT22;2990;48.746;9.236;2024-03-02T14:01:24;16.90;67.40
5930;DHT22;2990;48.746;9.236;2024-03-02T14:03:50;16.90;73.10
5930;DHT22;2990;48.746;9.236;2024-03-02T14:06:16;16.80;73.70
5930;DHT22;2990;48.746;9.236;2024-03-02T14:08:41;17.00;91.60
5930;DHT22;2990;48.746;9.236;2024-03-02T14:11:10;17.00;70.00
5930;DHT22;2990;48.746;9.236;2024-03-02T14:13:40;16.80;1.00
5930;DHT22;2990;48.746;9.236;2024-03-02T14:16:06;16.40;26.20
5930;DHT22;2990;48.746;9.236;2024-03-02T14:18:32;16.20;72.30
5930;DHT22;2990;48.746;9.236;2024-03-02T14:20:57;15.90;48.00
5930;DHT22;2990;48.746;9.236;2024-03-02T14:23:23;15.50;29.20
5930;DHT22;2990;48.746;9.236;2024-03-02T14:25:49;15.40;32.30
5930;DHT22;2990;48.746;9.236;2024-03-02T14:28:14;15.40;32.20
5930;DHT22;2990;48.746;9.236;2024-03-02T14:30:41;15.30;70.00
5930;DHT22;2990;48.746;9.236;2024-03-02T14:33:07;15.50;71.20
5930;DHT22;2990;48.746;9.236;2024-03-02T14:35:33;15.50;16.10
5930;DHT22;2990;48.746;9.236;2024-03-02T14:37:58;15.50;24.20
5930;DHT22;2990;48.746;9.236;2024-03-02T14:40:24;15.60;29.10
5930;DHT22;2990;48.746;9.236;2024-03-02T14:42:53;15.70;1.00
5930;DHT22;2990;48.746;9.236;2024-03-02T14:45:19;15.70;1.00
5930;DHT22;2990;48.746;9.236;2024-03-02T14:47:44;15.80;19.60
5930;DHT22;2990;48.746;9.236;2024-03-02T14:50:10;15.60;16.90
5930;DHT22;2990;48.746;9.236;2024-03-02T14:52:36;15.50;12.30
5930;DHT22;2990;48.746;9.236;2024-03-02T14:55:02;15.50;62.80
5930;DHT22;2990;48.746;9.236;2024-03-02T14:57:32;15.50;21.10
5930;DHT22;2990;48.746;9.236;2024-03-02T14:59:58;15.40;56.20
5930;DHT22;2990;48.746;9.236;2024-03-02T15:02:23;15.50;53.30
5930;DHT22;2990;48.746;9.236;2024-03-02T15:04:49;15.20;28.20
5930;DHT22;2990;48.746;9.236;2024-03-02T15:07:15;15.30;1.00
5930;DHT22;2990;48.746;9.236;2024-03-02T15:09:41;15.20;27.90
5930;DHT22;2990;48.746;9.236;2024-03-02T15:12:07;15.30;1.00
5930;DHT22;2990;48.746;9.236;2024-03-02T15:14:36;15.10;1.00
5930;DHT22;2990;48.746;9.236;2024-03-02T15:17:04;15.10;1.00
5930;DHT22;2990;48.746;9.236;2024-03-02T15:19:30;15.10;27.10
5930;DHT22;2990;48.746;9.236;2024-03-02T15:21:56;15.00;14.80
5930;DHT22;2990;48.746;9.236;2024-03-02T15:24:21;15.00;1.00
5930;DHT22;2990;48.746;9.236;2024-03-02T15:26:47;14.80;99.90
5930;DHT22;2990;48.746;9.236;2024-03-02T15:29:12;14.60;99.90
5930;DHT22;2990;48.746;9.236;2024-03-02T15:31:38;14.50;99.90
5930;DHT22;2990;48.746;9.236;2024-03-02T15:34:03;14.40;99.90
5930;DHT22;2990;48.746;9.236;2024-03-02T15:36:29;14.20;62.10
5930;DHT22;2990;48.746;9.236;2024-03-02T15:38:54;14.20;99.90
5930;DHT22;2990;48.746;9.236;2024-03-02T15:41:20;14.00;99.90
5930;DHT22;2990;48.746;9.236;2024-03-02T15:43:46;13.80;99.90
5930;DHT22;2990;48.746;9.236;2024-03-02T15:46:12;13.70;99.90
5930;DHT22;2990;48.746;9.236;2024-03-02T15:48:37;13.60;99.90
5930;DHT22;2990;48.746;9.236;2024-03-02T15:51:03;13.50;99.90
5930;DHT22;2990;48.746;9.236;2024-03-02T15:53:30;13.40;99.90
5930;DHT22;2990;48.746;9.236;2024-03-02T15:55:55;13.30;99.90
5930;DHT22;2990;48.746;9.236;2024-03-02T15:58:21;13.10;99.90
5930;DHT22;2990;48.746;9.236;2024-03-02T16:00:46;13.00;99.90
5930;DHT22;2990;48.746;9.236;2024-03-02T16:03:12;12.90;99.90
5930;DHT22;2990;48.746;9.236;2024-03-02T16:05:37;12.90;99.90
5930;DHT22;2990;48.746;9.236;2024-03-02T16:08:03;12.80;99.90
5930;DHT22;2990;48.746;9.236;2024-03-02T16:10:30;12.70;99.90
5930;DHT22;2990;48.746;9.236;2024-03-02T16:12:55;12.60;99.90
5930;DHT22;2990;48.746;9.236;2024-03-02T16:15:25;12.60;99.90
5930;DHT22;2990;48.746;9.236;2024-03-02T16:17:50;12.50;99.90